sensor_id;sensor_type;location;lat;lon;timestamp;pressure;altitude;pressure_sealevel;temperature
65316;BMP280;51920;53.952;10.292;2022-08-19T00:01:07;100841.38;;;20.11
65316;BMP280;51920;53.952;10.292;2022-08-19T00:03:33;100846.75;;;20.15
65316;BMP280;51920;53.952;10.292;2022-08-19T00:05:59;100839.56;;;20.08
65316;BMP280;51920;53.952;10.292;2022-08-19T00:08:24;100836.81;;;20.08
65316;BMP280;51920;53.952;10.292;2022-08-19T00:10:49;100846.25;;;20.07
65316;BMP280;51920;53.952;10.292;2022-08-19T00:13:15;100839.19;;;20.06
65316;BMP280;51920;53.952;10.292;2022-08-19T00:15:40;100826.38;;;20.03
65316;BMP280;51920;53.952;10.292;2022-08-19T00:18:10;100823.16;;;20.05
65316;BMP280;51920;53.952;10.292;2022-08-19T00:20:35;100819.94;;;20.06
65316;BMP280;51920;53.952;10.292;2022-08-19T00:23:02;100818.88;;;20.04
65316;BMP280;51920;53.952;10.292;2022-08-19T00:25:28;100816.69;;;19.99
65316;BMP280;51920;53.952;10.292;2022-08-19T00:27:53;100808.69;;;19.91
65316;BMP280;51920;53.952;10.292;2022-08-19T00:30:19;100815.28;;;19.94
65316;BMP280;51920;53.952;10.292;2022-08-19T00:32:44;100817.13;;;19.97
65316;BMP280;51920;53.952;10.292;2022-08-19T00:35:10;100815.66;;;20.05
65316;BMP280;51920;53.952;10.292;2022-08-19T00:37:36;100810.44;;;19.98
65316;BMP280;51920;53.952;10.292;2022-08-19T00:40:04;100810.56;;;19.94
65316;BMP280;51920;53.952;10.292;2022-08-19T00:42:31;100799.69;;;19.91
65316;BMP280;51920;53.952;10.292;2022-08-19T00:44:56;100806.06;;;19.88
65316;BMP280;51920;53.952;10.292;2022-08-19T00:47:22;100797.81;;;19.88
65316;BMP280;51920;53.952;10.292;2022-08-19T00:49:50;100799.69;;;19.91
65316;BMP280;51920;53.952;10.292;2022-08-19T00:52:29;100802.09;;;19.89
65316;BMP280;51920;53.952;10.292;2022-08-19T00:54:58;100798.78;;;19.94
65316;BMP280;51920;53.952;10.292;2022-08-19T00:57:30;100789.44;;;19.91
65316;BMP280;51920;53.952;10.292;2022-08-19T00:59:58;100782.50;;;19.87
65316;BMP280;51920;53.952;10.292;2022-08-19T01:02:26;100794.19;;;19.91
65316;BMP280;51920;53.952;10.292;2022-08-19T01:04:52;100773.31;;;19.81
65316;BMP280;51920;53.952;10.292;2022-08-19T01:07:18;100777.00;;;19.87
65316;BMP280;51920;53.952;10.292;2022-08-19T01:09:43;100775.81;;;19.88
65316;BMP280;51920;53.952;10.292;2022-08-19T01:12:09;100771.75;;;19.80
65316;BMP280;51920;53.952;10.292;2022-08-19T01:14:36;100775.44;;;19.77
65316;BMP280;51920;53.952;10.292;2022-08-19T01:17:03;100771.88;;;19.76
65316;BMP280;51920;53.952;10.292;2022-08-19T01:19:33;100777.63;;;19.82
65316;BMP280;51920;53.952;10.292;2022-08-19T01:22:10;100775.19;;;19.84
65316;BMP280;51920;53.952;10.292;2022-08-19T01:24:37;100770.88;;;19.83
65316;BMP280;51920;53.952;10.292;2022-08-19T01:27:06;100767.81;;;19.81
65316;BMP280;51920;53.952;10.292;2022-08-19T01:29:37;100760.00;;;19.79
65316;BMP280;51920;53.952;10.292;2022-08-19T01:32:04;100758.38;;;19.82
65316;BMP280;51920;53.952;10.292;2022-08-19T01:34:29;100747.63;;;19.75
65316;BMP280;51920;53.952;10.292;2022-08-19T01:36:55;100736.97;;;19.64
65316;BMP280;51920;53.952;10.292;2022-08-19T01:39:23;100739.41;;;19.62
65316;BMP280;51920;53.952;10.292;2022-08-19T01:41:49;100726.69;;;19.55
65316;BMP280;51920;53.952;10.292;2022-08-19T01:44:15;100727.63;;;19.61
65316;BMP280;51920;53.952;10.292;2022-08-19T01:46:42;100723.47;;;19.57
65316;BMP280;51920;53.952;10.292;2022-08-19T01:49:08;100725.78;;;19.58
65316;BMP280;51920;53.952;10.292;2022-08-19T01:51:34;100720.09;;;19.53
65316;BMP280;51920;53.952;10.292;2022-08-19T01:54:00;100724.69;;;19.56
65316;BMP280;51920;53.952;10.292;2022-08-19T01:56:26;100702.44;;;19.41
65316;BMP280;51920;53.952;10.292;2022-08-19T01:59:00;100719.31;;;19.52
65316;BMP280;51920;53.952;10.292;2022-08-19T02:01:27;100718.22;;;19.49
65316;BMP280;51920;53.952;10.292;2022-08-19T02:03:52;100724.81;;;19.52
65316;BMP280;51920;53.952;10.292;2022-08-19T02:06:19;100718.44;;;19.42
65316;BMP280;51920;53.952;10.292;2022-08-19T02:08:45;100718.03;;;19.44
65316;BMP280;51920;53.952;10.292;2022-08-19T02:11:21;100714.72;;;19.49
65316;BMP280;51920;53.952;10.292;2022-08-19T02:13:46;100722.63;;;19.47
65316;BMP280;51920;53.952;10.292;2022-08-19T02:16:12;100721.09;;;19.46
65316;BMP280;51920;53.952;10.292;2022-08-19T02:18:37;100727.03;;;19.44
65316;BMP280;51920;53.952;10.292;2022-08-19T02:21:03;100717.25;;;19.43
65316;BMP280;51920;53.952;10.292;2022-08-19T02:23:28;100715.41;;;19.40
65316;BMP280;51920;53.952;10.292;2022-08-19T02:25:53;100724.06;;;19.39
65316;BMP280;51920;53.952;10.292;2022-08-19T02:28:19;100725.00;;;19.36
65316;BMP280;51920;53.952;10.292;2022-08-19T02:30:46;100715.81;;;19.39
65316;BMP280;51920;53.952;10.292;2022-08-19T02:33:11;100719.78;;;19.38
65316;BMP280;51920;53.952;10.292;2022-08-19T02:35:41;100713.00;;;19.30
65316;BMP280;51920;53.952;10.292;2022-08-19T02:38:06;100718.28;;;19.37
65316;BMP280;51920;53.952;10.292;2022-08-19T02:40:52;100720.56;;;19.38
65316;BMP280;51920;53.952;10.292;2022-08-19T02:43:18;100718.28;;;19.37
65316;BMP280;51920;53.952;10.292;2022-08-19T02:45:47;100711.25;;;19.36
65316;BMP280;51920;53.952;10.292;2022-08-19T02:48:15;100718.28;;;19.37
65316;BMP280;51920;53.952;10.292;2022-08-19T02:50:43;100713.50;;;19.37
65316;BMP280;51920;53.952;10.292;2022-08-19T02:53:09;100707.16;;;19.40
65316;BMP280;51920;53.952;10.292;2022-08-19T02:55:35;100704.97;;;19.35
65316;BMP280;51920;53.952;10.292;2022-08-19T02:58:00;100704.53;;;19.37
65316;BMP280;51920;53.952;10.292;2022-08-19T03:00:26;100696.41;;;19.33
65316;BMP280;51920;53.952;10.292;2022-08-19T03:02:52;100679.31;;;19.16
65316;BMP280;51920;53.952;10.292;2022-08-19T03:05:18;100704.44;;;19.27
65316;BMP280;51920;53.952;10.292;2022-08-19T03:07:43;100696.66;;;19.26
65316;BMP280;51920;53.952;10.292;2022-08-19T03:10:09;100699.81;;;19.24
65316;BMP280;51920;53.952;10.292;2022-08-19T03:12:36;100718.63;;;19.26
65316;BMP280;51920;53.952;10.292;2022-08-19T03:15:04;100722.34;;;19.19
65316;BMP280;51920;53.952;10.292;2022-08-19T03:17:30;100715.03;;;19.16
65316;BMP280;51920;53.952;10.292;2022-08-19T03:19:55;100722.25;;;19.10
65316;BMP280;51920;53.952;10.292;2022-08-19T03:22:22;100719.19;;;19.08
65316;BMP280;51920;53.952;10.292;2022-08-19T03:24:47;100725.56;;;19.05
65316;BMP280;51920;53.952;10.292;2022-08-19T03:27:12;100733.03;;;19.04
65316;BMP280;51920;53.952;10.292;2022-08-19T03:29:39;100728.75;;;19.03
65316;BMP280;51920;53.952;10.292;2022-08-19T03:32:05;100737.66;;;19.08
65316;BMP280;51920;53.952;10.292;2022-08-19T03:34:32;100749.72;;;19.10
65316;BMP280;51920;53.952;10.292;2022-08-19T03:37:05;100759.97;;;19.10
65316;BMP280;51920;53.952;10.292;2022-08-19T03:39:31;100764.31;;;19.07
65316;BMP280;51920;53.952;10.292;2022-08-19T03:41:56;100764.00;;;19.05
65316;BMP280;51920;53.952;10.292;2022-08-19T03:44:29;100764.44;;;19.03
65316;BMP280;51920;53.952;10.292;2022-08-19T03:46:56;100768.09;;;19.00
65316;BMP280;51920;53.952;10.292;2022-08-19T03:49:24;100783.66;;;19.03
65316;BMP280;51920;53.952;10.292;2022-08-19T03:51:50;100782.34;;;19.08
65316;BMP280;51920;53.952;10.292;2022-08-19T03:54:19;100778.97;;;19.04
65316;BMP280;51920;53.952;10.292;2022-08-19T03:56:47;100788.72;;;19.05
65316;BMP280;51920;53.952;10.292;2022-08-19T03:59:16;100791.13;;;19.03
65316;BMP280;51920;53.952;10.292;2022-08-19T04:01:42;100803.66;;;19.04
65316;BMP280;51920;53.952;10.292;2022-08-19T04:04:09;100806.28;;;19.08
65316;BMP280;51920;53.952;10.292;2022-08-19T04:06:36;100806.72;;;19.06
65316;BMP280;51920;53.952;10.292;2022-08-19T04:09:05;100809.47;;;19.06
65316;BMP280;51920;53.952;10.292;2022-08-19T04:11:36;100816.25;;;19.01
65316;BMP280;51920;53.952;10.292;2022-08-19T04:14:04;100820.44;;;19.06
65316;BMP280;51920;53.952;10.292;2022-08-19T04:16:29;100819.69;;;19.06
65316;BMP280;51920;53.952;10.292;2022-08-19T04:18:56;100805.28;;;19.01
65316;BMP280;51920;53.952;10.292;2022-08-19T04:21:25;100804.09;;;19.02
65316;BMP280;51920;53.952;10.292;2022-08-19T04:23:52;100800.91;;;19.04
65316;BMP280;51920;53.952;10.292;2022-08-19T04:26:20;100797.91;;;18.98
65316;BMP280;51920;53.952;10.292;2022-08-19T04:28:46;100792.53;;;18.95
65316;BMP280;51920;53.952;10.292;2022-08-19T04:31:27;100797.16;;;18.98
65316;BMP280;51920;53.952;10.292;2022-08-19T04:33:53;100796.41;;;18.97
65316;BMP280;51920;53.952;10.292;2022-08-19T04:36:44;100808.91;;;18.98
65316;BMP280;51920;53.952;10.292;2022-08-19T04:39:15;100801.88;;;18.97
65316;BMP280;51920;53.952;10.292;2022-08-19T04:41:41;100814.31;;;19.02
65316;BMP280;51920;53.952;10.292;2022-08-19T04:44:25;100803.78;;;19.00
65316;BMP280;51920;53.952;10.292;2022-08-19T04:46:51;100803.66;;;19.04
65316;BMP280;51920;53.952;10.292;2022-08-19T04:49:18;100800.56;;;19.02
65316;BMP280;51920;53.952;10.292;2022-08-19T04:51:46;100803.06;;;18.96
65316;BMP280;51920;53.952;10.292;2022-08-19T04:54:13;100798.72;;;18.99
65316;BMP280;51920;53.952;10.292;2022-08-19T04:56:43;100804.09;;;19.02
65316;BMP280;51920;53.952;10.292;2022-08-19T04:59:09;100810.34;;;19.03
65316;BMP280;51920;53.952;10.292;2022-08-19T05:01:35;100793.22;;;18.99
65316;BMP280;51920;53.952;10.292;2022-08-19T05:04:04;100804.50;;;19.01
65316;BMP280;51920;53.952;10.292;2022-08-19T05:06:30;100792.44;;;18.98
65316;BMP280;51920;53.952;10.292;2022-08-19T05:08:58;100807.25;;;19.01
65316;BMP280;51920;53.952;10.292;2022-08-19T05:11:29;100808.81;;;19.02
65316;BMP280;51920;53.952;10.292;2022-08-19T05:13:56;100817.69;;;19.06
65316;BMP280;51920;53.952;10.292;2022-08-19T05:16:23;100820.13;;;19.04
65316;BMP280;51920;53.952;10.292;2022-08-19T05:18:50;100821.97;;;19.07
65316;BMP280;51920;53.952;10.292;2022-08-19T05:21:34;100815.28;;;19.08
65316;BMP280;51920;53.952;10.292;2022-08-19T05:24:21;100817.16;;;19.11
65316;BMP280;51920;53.952;10.292;2022-08-19T05:26:49;100823.75;;;19.14
65316;BMP280;51920;53.952;10.292;2022-08-19T05:29:17;100827.72;;;19.13
65316;BMP280;51920;53.952;10.292;2022-08-19T05:31:43;100829.66;;;19.12
65316;BMP280;51920;53.952;10.292;2022-08-19T05:34:09;100827.84;;;19.09
65316;BMP280;51920;53.952;10.292;2022-08-19T05:36:41;100828.59;;;19.10
65316;BMP280;51920;53.952;10.292;2022-08-19T05:39:19;100820.44;;;19.06
65316;BMP280;51920;53.952;10.292;2022-08-19T05:41:50;100829.13;;;19.17
65316;BMP280;51920;53.952;10.292;2022-08-19T05:44:16;100832.41;;;19.12
65316;BMP280;51920;53.952;10.292;2022-08-19T05:46:44;100836.38;;;19.11
65316;BMP280;51920;53.952;10.292;2022-08-19T05:49:12;100823.94;;;19.19
65316;BMP280;51920;53.952;10.292;2022-08-19T05:51:38;100817.16;;;19.11
65316;BMP280;51920;53.952;10.292;2022-08-19T05:54:06;100821.00;;;19.14
65316;BMP280;51920;53.952;10.292;2022-08-19T05:56:32;100825.50;;;19.20
65316;BMP280;51920;53.952;10.292;2022-08-19T05:59:00;100824.75;;;19.20
65316;BMP280;51920;53.952;10.292;2022-08-19T06:01:26;100823.75;;;19.26
65316;BMP280;51920;53.952;10.292;2022-08-19T06:03:52;100821.91;;;19.23
65316;BMP280;51920;53.952;10.292;2022-08-19T06:06:18;100815.16;;;19.24
65316;BMP280;51920;53.952;10.292;2022-08-19T06:08:44;100810.00;;;19.26
65316;BMP280;51920;53.952;10.292;2022-08-19T06:11:24;100815.06;;;19.28
65316;BMP280;51920;53.952;10.292;2022-08-19T06:13:52;100812.13;;;19.22
65316;BMP280;51920;53.952;10.292;2022-08-19T06:16:20;100799.13;;;19.10
65316;BMP280;51920;53.952;10.292;2022-08-19T06:18:52;100814.53;;;19.20
65316;BMP280;51920;53.952;10.292;2022-08-19T06:21:23;100812.13;;;19.22
65316;BMP280;51920;53.952;10.292;2022-08-19T06:23:50;100813.75;;;19.20
65316;BMP280;51920;53.952;10.292;2022-08-19T06:26:17;100804.63;;;19.23
65316;BMP280;51920;53.952;10.292;2022-08-19T06:28:44;100801.44;;;19.12
65316;BMP280;51920;53.952;10.292;2022-08-19T06:31:30;100820.78;;;19.21
65316;BMP280;51920;53.952;10.292;2022-08-19T06:33:58;100816.97;;;19.18
65316;BMP280;51920;53.952;10.292;2022-08-19T06:36:33;100816.16;;;19.18
65316;BMP280;51920;53.952;10.292;2022-08-19T06:39:33;100821.53;;;19.21
65316;BMP280;51920;53.952;10.292;2022-08-19T06:42:00;100826.59;;;19.23
65316;BMP280;51920;53.952;10.292;2022-08-19T06:44:30;100829.25;;;19.26
65316;BMP280;51920;53.952;10.292;2022-08-19T06:47:01;100825.59;;;19.30
65316;BMP280;51920;53.952;10.292;2022-08-19T06:49:28;100817.91;;;19.24
65316;BMP280;51920;53.952;10.292;2022-08-19T06:51:57;100814.63;;;19.30
65316;BMP280;51920;53.952;10.292;2022-08-19T06:54:24;100817.38;;;19.30
65316;BMP280;51920;53.952;10.292;2022-08-19T06:56:51;100814.72;;;19.39
65316;BMP280;51920;53.952;10.292;2022-08-19T06:59:21;100819.91;;;19.37
65316;BMP280;51920;53.952;10.292;2022-08-19T07:01:50;100820.56;;;19.41
65316;BMP280;51920;53.952;10.292;2022-08-19T07:04:18;100824.84;;;19.42
65316;BMP280;51920;53.952;10.292;2022-08-19T07:06:43;100818.69;;;19.38
65316;BMP280;51920;53.952;10.292;2022-08-19T07:09:12;100822.53;;;19.40
65316;BMP280;51920;53.952;10.292;2022-08-19T07:11:38;100831.09;;;19.42
65316;BMP280;51920;53.952;10.292;2022-08-19T07:14:03;100825.50;;;19.46
65316;BMP280;51920;53.952;10.292;2022-08-19T07:16:30;100835.47;;;19.53
65316;BMP280;51920;53.952;10.292;2022-08-19T07:18:55;100833.25;;;19.60
65316;BMP280;51920;53.952;10.292;2022-08-19T07:21:24;100827.56;;;19.55
65316;BMP280;51920;53.952;10.292;2022-08-19T07:23:53;100842.28;;;19.61
65316;BMP280;51920;53.952;10.292;2022-08-19T07:26:25;100833.72;;;19.71
65316;BMP280;51920;53.952;10.292;2022-08-19T07:28:51;100837.34;;;19.68
65316;BMP280;51920;53.952;10.292;2022-08-19T07:31:20;100819.31;;;19.67
65316;BMP280;51920;53.952;10.292;2022-08-19T07:33:48;100833.25;;;19.60
65316;BMP280;51920;53.952;10.292;2022-08-19T07:36:17;100844.25;;;19.60
65316;BMP280;51920;53.952;10.292;2022-08-19T07:38:44;100839.75;;;19.66
65316;BMP280;51920;53.952;10.292;2022-08-19T07:41:16;100845.00;;;19.73
65316;BMP280;51920;53.952;10.292;2022-08-19T07:43:42;100848.09;;;19.76
65316;BMP280;51920;53.952;10.292;2022-08-19T07:46:09;100852.16;;;19.84
65316;BMP280;51920;53.952;10.292;2022-08-19T07:48:35;100855.53;;;19.88
65316;BMP280;51920;53.952;10.292;2022-08-19T07:51:04;100851.03;;;19.94
65316;BMP280;51920;53.952;10.292;2022-08-19T07:53:31;100859.72;;;19.92
65316;BMP280;51920;53.952;10.292;2022-08-19T07:55:59;100857.09;;;19.89
65316;BMP280;51920;53.952;10.292;2022-08-19T07:58:30;100861.38;;;19.90
65316;BMP280;51920;53.952;10.292;2022-08-19T08:00:56;100854.84;;;19.97
65316;BMP280;51920;53.952;10.292;2022-08-19T08:03:22;100852.88;;;19.97
65316;BMP280;51920;53.952;10.292;2022-08-19T08:06:09;100859.94;;;19.98
65316;BMP280;51920;53.952;10.292;2022-08-19T08:08:53;100858.25;;;20.01
65316;BMP280;51920;53.952;10.292;2022-08-19T08:11:42;100867.16;;;20.05
65316;BMP280;51920;53.952;10.292;2022-08-19T08:14:15;100873.63;;;20.11
65316;BMP280;51920;53.952;10.292;2022-08-19T08:16:41;100867.25;;;20.14
65316;BMP280;51920;53.952;10.292;2022-08-19T08:19:09;100876.47;;;20.20
65316;BMP280;51920;53.952;10.292;2022-08-19T08:21:35;100869.28;;;20.23
65316;BMP280;51920;53.952;10.292;2022-08-19T08:24:00;100875.44;;;20.27
65316;BMP280;51920;53.952;10.292;2022-08-19T08:26:26;100882.50;;;20.28
65316;BMP280;51920;53.952;10.292;2022-08-19T08:28:53;100883.31;;;20.37
65316;BMP280;51920;53.952;10.292;2022-08-19T08:31:18;100888.38;;;20.39
65316;BMP280;51920;53.952;10.292;2022-08-19T08:33:45;100891.13;;;20.39
65316;BMP280;51920;53.952;10.292;2022-08-19T08:36:11;100888.81;;;20.37
65316;BMP280;51920;53.952;10.292;2022-08-19T08:38:37;100892.41;;;20.25
65316;BMP280;51920;53.952;10.292;2022-08-19T08:43:54;100894.13;;;20.32
65316;BMP280;51920;53.952;10.292;2022-08-19T08:46:37;100890.88;;;20.24
65316;BMP280;51920;53.952;10.292;2022-08-19T08:51:44;100895.91;;;20.26
65316;BMP280;51920;53.952;10.292;2022-08-19T08:54:14;100900.13;;;20.17
65316;BMP280;51920;53.952;10.292;2022-08-19T08:56:44;100905.94;;;20.20
65316;BMP280;51920;53.952;10.292;2022-08-19T08:59:21;100894.38;;;20.25
65316;BMP280;51920;53.952;10.292;2022-08-19T09:01:48;100898.72;;;20.13
65316;BMP280;51920;53.952;10.292;2022-08-19T09:04:14;100890.25;;;20.07
65316;BMP280;51920;53.952;10.292;2022-08-19T09:07:00;100897.94;;;20.12
65316;BMP280;51920;53.952;10.292;2022-08-19T09:09:34;100896.41;;;20.11
65316;BMP280;51920;53.952;10.292;2022-08-19T09:12:19;100906.75;;;20.07
65316;BMP280;51920;53.952;10.292;2022-08-19T09:17:12;100904.44;;;20.06
65316;BMP280;51920;53.952;10.292;2022-08-19T09:19:51;100898.50;;;20.07
65316;BMP280;51920;53.952;10.292;2022-08-19T09:22:17;100900.63;;;20.03
65316;BMP280;51920;53.952;10.292;2022-08-19T09:24:45;100902.81;;;20.08
65316;BMP280;51920;53.952;10.292;2022-08-19T09:27:11;100905.44;;;20.12
65316;BMP280;51920;53.952;10.292;2022-08-19T09:29:36;100898.34;;;20.24
65316;BMP280;51920;53.952;10.292;2022-08-19T09:32:01;100910.13;;;20.24
65316;BMP280;51920;53.952;10.292;2022-08-19T09:34:27;100916.78;;;20.36
65316;BMP280;51920;53.952;10.292;2022-08-19T09:36:54;100908.97;;;20.34
65316;BMP280;51920;53.952;10.292;2022-08-19T09:39:23;100913.13;;;20.39
65316;BMP280;51920;53.952;10.292;2022-08-19T09:41:49;100913.53;;;20.50
65316;BMP280;51920;53.952;10.292;2022-08-19T09:44:15;100914.47;;;20.47
65316;BMP280;51920;53.952;10.292;2022-08-19T09:46:41;100915.38;;;20.53
65316;BMP280;51920;53.952;10.292;2022-08-19T09:49:06;100913.84;;;20.52
65316;BMP280;51920;53.952;10.292;2022-08-19T09:51:32;100912.56;;;20.44
65316;BMP280;51920;53.952;10.292;2022-08-19T09:54:00;100915.88;;;20.39
65316;BMP280;51920;53.952;10.292;2022-08-19T09:56:27;100904.88;;;20.39
65316;BMP280;51920;53.952;10.292;2022-08-19T09:58:53;100902.13;;;20.39
65316;BMP280;51920;53.952;10.292;2022-08-19T10:01:23;100899.13;;;20.46
65316;BMP280;51920;53.952;10.292;2022-08-19T10:03:52;100903.19;;;20.54
65316;BMP280;51920;53.952;10.292;2022-08-19T10:06:19;100905.56;;;20.52
65316;BMP280;51920;53.952;10.292;2022-08-19T10:08:45;100906.69;;;20.55
65316;BMP280;51920;53.952;10.292;2022-08-19T10:11:11;100903.94;;;20.55
65316;BMP280;51920;53.952;10.292;2022-08-19T10:13:36;100905.56;;;20.52
65316;BMP280;51920;53.952;10.292;2022-08-19T10:16:20;100901.97;;;20.55
65316;BMP280;51920;53.952;10.292;2022-08-19T10:18:47;100906.22;;;20.56
65316;BMP280;51920;53.952;10.292;2022-08-19T10:21:24;100901.97;;;20.55
65316;BMP280;51920;53.952;10.292;2022-08-19T10:23:52;100902.63;;;20.59
65316;BMP280;51920;53.952;10.292;2022-08-19T10:26:21;100907.00;;;20.57
65316;BMP280;51920;53.952;10.292;2022-08-19T10:28:47;100899.06;;;20.59
65316;BMP280;51920;53.952;10.292;2022-08-19T10:31:22;100905.94;;;20.54
65316;BMP280;51920;53.952;10.292;2022-08-19T10:33:49;100907.13;;;20.53
65316;BMP280;51920;53.952;10.292;2022-08-19T10:36:19;100909.59;;;20.51
65316;BMP280;51920;53.952;10.292;2022-08-19T10:38:47;100905.16;;;20.54
65316;BMP280;51920;53.952;10.292;2022-08-19T10:41:21;100901.97;;;20.55
65316;BMP280;51920;53.952;10.292;2022-08-19T10:43:51;100906.13;;;20.60
65316;BMP280;51920;53.952;10.292;2022-08-19T10:46:21;100906.63;;;20.68
65316;BMP280;51920;53.952;10.292;2022-08-19T10:48:47;100912.75;;;20.72
65316;BMP280;51920;53.952;10.292;2022-08-19T10:51:13;100908.63;;;20.67
65316;BMP280;51920;53.952;10.292;2022-08-19T10:53:57;100912.75;;;20.72
65316;BMP280;51920;53.952;10.292;2022-08-19T10:56:23;100908.44;;;20.61
65316;BMP280;51920;53.952;10.292;2022-08-19T10:59:07;100907.59;;;20.74
65316;BMP280;51920;53.952;10.292;2022-08-19T11:01:34;100901.97;;;20.77
65316;BMP280;51920;53.952;10.292;2022-08-19T11:04:01;100909.78;;;20.79
65316;BMP280;51920;53.952;10.292;2022-08-19T11:06:27;100910.13;;;20.90
65316;BMP280;51920;53.952;10.292;2022-08-19T11:08:53;100903.78;;;21.02
65316;BMP280;51920;53.952;10.292;2022-08-19T11:11:20;100903.56;;;21.19
65316;BMP280;51920;53.952;10.292;2022-08-19T11:13:47;100892.88;;;21.30
65316;BMP280;51920;53.952;10.292;2022-08-19T11:16:17;100896.56;;;21.36
65316;BMP280;51920;53.952;10.292;2022-08-19T11:18:45;100889.56;;;21.44
65316;BMP280;51920;53.952;10.292;2022-08-19T11:21:26;100898.19;;;21.74
65316;BMP280;51920;53.952;10.292;2022-08-19T11:23:55;100896.69;;;21.91
65316;BMP280;51920;53.952;10.292;2022-08-19T11:26:21;100899.78;;;22.12
65316;BMP280;51920;53.952;10.292;2022-08-19T11:28:46;100900.41;;;22.16
65316;BMP280;51920;53.952;10.292;2022-08-19T11:31:20;100900.69;;;21.99
65316;BMP280;51920;53.952;10.292;2022-08-19T11:33:45;100894.72;;;22.19
65316;BMP280;51920;53.952;10.292;2022-08-19T11:36:12;100887.22;;;22.11
65316;BMP280;51920;53.952;10.292;2022-08-19T11:38:37;100893.03;;;22.03
65316;BMP280;51920;53.952;10.292;2022-08-19T11:41:06;100890.56;;;22.06
65316;BMP280;51920;53.952;10.292;2022-08-19T11:43:33;100896.88;;;22.15
65316;BMP280;51920;53.952;10.292;2022-08-19T11:45:59;100898.53;;;22.13
65316;BMP280;51920;53.952;10.292;2022-08-19T11:48:26;100899.16;;;22.08
65316;BMP280;51920;53.952;10.292;2022-08-19T11:50:53;100896.09;;;22.06
65316;BMP280;51920;53.952;10.292;2022-08-19T11:53:20;100890.13;;;21.98
65316;BMP280;51920;53.952;10.292;2022-08-19T11:55:47;100903.16;;;22.16
65316;BMP280;51920;53.952;10.292;2022-08-19T11:58:13;100906.38;;;22.23
65316;BMP280;51920;53.952;10.292;2022-08-19T12:00:39;100893.94;;;22.37
65316;BMP280;51920;53.952;10.292;2022-08-19T12:03:05;100899.44;;;22.37
65316;BMP280;51920;53.952;10.292;2022-08-19T12:05:31;100897.00;;;22.39
65316;BMP280;51920;53.952;10.292;2022-08-19T12:07:56;100897.28;;;22.41
65316;BMP280;51920;53.952;10.292;2022-08-19T12:10:22;100887.78;;;22.52
65316;BMP280;51920;53.952;10.292;2022-08-19T12:12:48;100892.66;;;22.66
65316;BMP280;51920;53.952;10.292;2022-08-19T12:15:13;100886.81;;;22.73
65316;BMP280;51920;53.952;10.292;2022-08-19T12:17:40;100896.00;;;22.79
65316;BMP280;51920;53.952;10.292;2022-08-19T12:20:08;100889.88;;;22.75
65316;BMP280;51920;53.952;10.292;2022-08-19T12:22:35;100894.31;;;22.82
65316;BMP280;51920;53.952;10.292;2022-08-19T12:25:00;100890.75;;;22.90
65316;BMP280;51920;53.952;10.292;2022-08-19T12:27:26;100893.09;;;22.83
65316;BMP280;51920;53.952;10.292;2022-08-19T12:29:51;100886.13;;;22.96
65316;BMP280;51920;53.952;10.292;2022-08-19T12:32:17;100889.66;;;22.97
65316;BMP280;51920;53.952;10.292;2022-08-19T12:34:42;100897.59;;;23.04
65316;BMP280;51920;53.952;10.292;2022-08-19T12:37:08;100900.06;;;23.02
65316;BMP280;51920;53.952;10.292;2022-08-19T12:39:40;100900.28;;;22.89
65316;BMP280;51920;53.952;10.292;2022-08-19T12:42:06;100898.91;;;22.85
65316;BMP280;51920;53.952;10.292;2022-08-19T12:44:33;100887.25;;;22.81
65316;BMP280;51920;53.952;10.292;2022-08-19T12:46:59;100898.75;;;22.88
65316;BMP280;51920;53.952;10.292;2022-08-19T12:49:24;100891.94;;;22.99
65316;BMP280;51920;53.952;10.292;2022-08-19T12:51:50;100895.88;;;23.07
65316;BMP280;51920;53.952;10.292;2022-08-19T12:54:15;100880.72;;;23.02
65316;BMP280;51920;53.952;10.292;2022-08-19T12:56:41;100893.28;;;23.03
65316;BMP280;51920;53.952;10.292;2022-08-19T12:59:07;100886.06;;;23.06
65316;BMP280;51920;53.952;10.292;2022-08-19T13:01:34;100879.03;;;23.05
65316;BMP280;51920;53.952;10.292;2022-08-19T13:03:59;100871.09;;;22.98
65316;BMP280;51920;53.952;10.292;2022-08-19T13:06:25;100888.59;;;23.28
65316;BMP280;51920;53.952;10.292;2022-08-19T13:08:51;100887.53;;;23.25
65316;BMP280;51920;53.952;10.292;2022-08-19T13:11:19;100890.88;;;23.29
65316;BMP280;51920;53.952;10.292;2022-08-19T13:13:47;100888.69;;;23.33
65316;BMP280;51920;53.952;10.292;2022-08-19T13:16:13;100882.63;;;23.53
65316;BMP280;51920;53.952;10.292;2022-08-19T13:18:41;100884.22;;;23.69
65316;BMP280;51920;53.952;10.292;2022-08-19T13:21:08;100889.47;;;23.82
65316;BMP280;51920;53.952;10.292;2022-08-19T13:23:34;100880.34;;;23.90
65316;BMP280;51920;53.952;10.292;2022-08-19T13:26:03;100875.75;;;23.87
65316;BMP280;51920;53.952;10.292;2022-08-19T13:28:30;100874.94;;;23.72
65316;BMP280;51920;53.952;10.292;2022-08-19T13:31:17;100872.50;;;23.89
65316;BMP280;51920;53.952;10.292;2022-08-19T13:34:06;100878.78;;;23.89
65316;BMP280;51920;53.952;10.292;2022-08-19T13:36:33;100862.78;;;23.94
65316;BMP280;51920;53.952;10.292;2022-08-19T13:38:59;100866.22;;;24.03
65316;BMP280;51920;53.952;10.292;2022-08-19T13:41:25;100867.06;;;23.80
65316;BMP280;51920;53.952;10.292;2022-08-19T13:43:52;100850.78;;;23.58
65316;BMP280;51920;53.952;10.292;2022-08-19T13:46:17;100864.84;;;23.69
65316;BMP280;51920;53.952;10.292;2022-08-19T13:48:45;100866.13;;;23.59
65316;BMP280;51920;53.952;10.292;2022-08-19T13:51:10;100860.78;;;23.55
65316;BMP280;51920;53.952;10.292;2022-08-19T13:53:37;100858.09;;;23.46
65316;BMP280;51920;53.952;10.292;2022-08-19T13:56:07;100863.78;;;23.42
65316;BMP280;51920;53.952;10.292;2022-08-19T13:58:33;100865.41;;;23.25